createdAt,value
2017-07-22T00:00:29.811Z,20.17
2017-07-22T00:02:58.146Z,20.08
2017-07-22T00:05:26.489Z,20.08
2017-07-22T00:07:54.866Z,20.15
2017-07-22T00:10:23.183Z,20.29
2017-07-22T00:12:51.542Z,20.03
2017-07-22T00:15:19.860Z,19.98
2017-07-22T00:17:48.221Z,19.95
2017-07-22T00:20:16.568Z,20.03
2017-07-22T00:22:45.604Z,20.16
2017-07-22T00:25:13.953Z,20.18
2017-07-22T00:27:42.310Z,19.96
2017-07-22T00:30:10.656Z,19.93
2017-07-22T00:32:39.009Z,19.93
2017-07-22T00:35:07.344Z,19.91
2017-07-22T00:37:35.705Z,19.80
2017-07-22T00:40:04.063Z,19.84
2017-07-22T00:42:32.389Z,19.87
2017-07-22T00:45:00.735Z,19.85
2017-07-22T00:47:29.060Z,19.90
2017-07-22T00:49:57.705Z,19.79
2017-07-22T00:52:26.055Z,19.81
2017-07-22T00:54:54.385Z,19.87
2017-07-22T00:57:22.714Z,19.79
2017-07-22T00:59:51.051Z,19.70
2017-07-22T01:02:19.406Z,19.81
2017-07-22T01:04:47.739Z,19.82
2017-07-22T01:07:16.090Z,19.80
2017-07-22T01:09:45.163Z,19.78
2017-07-22T01:12:13.556Z,19.70
2017-07-22T01:14:41.915Z,19.64
2017-07-22T01:17:11.013Z,19.61
2017-07-22T01:19:39.360Z,19.82
2017-07-22T01:22:07.712Z,19.80
2017-07-22T01:24:36.063Z,19.87
2017-07-22T01:27:04.383Z,19.87
2017-07-22T01:29:32.738Z,19.82
2017-07-22T01:32:01.074Z,19.73
2017-07-22T01:34:29.414Z,19.70
2017-07-22T01:36:57.766Z,19.63
2017-07-22T01:39:26.111Z,19.80
2017-07-22T01:41:55.242Z,19.80
2017-07-22T01:44:23.598Z,19.72
2017-07-22T01:46:51.951Z,19.71
2017-07-22T01:49:20.301Z,19.84
2017-07-22T01:51:49.277Z,19.80
2017-07-22T01:54:17.641Z,19.73
2017-07-22T01:56:45.981Z,19.77
2017-07-22T01:59:14.575Z,19.77
2017-07-22T02:01:42.949Z,19.83
2017-07-22T02:04:11.267Z,19.75
2017-07-22T02:06:39.609Z,19.68
2017-07-22T02:09:09.101Z,19.63
2017-07-22T02:11:37.726Z,19.66
2017-07-22T02:14:06.063Z,19.68
2017-07-22T02:16:34.405Z,19.58
2017-07-22T02:19:02.764Z,19.55
2017-07-22T02:21:31.094Z,19.60
2017-07-22T02:23:59.429Z,19.68
2017-07-22T02:26:27.771Z,19.80
2017-07-22T02:28:56.110Z,19.60
2017-07-22T02:31:24.478Z,19.56
2017-07-22T02:33:52.900Z,19.53
2017-07-22T02:36:21.300Z,19.54
2017-07-22T02:38:50.029Z,19.42
2017-07-22T02:41:18.347Z,19.52
2017-07-22T02:43:47.057Z,19.59
2017-07-22T02:46:15.379Z,19.40
2017-07-22T02:48:43.714Z,19.37
2017-07-22T02:51:12.060Z,19.39
2017-07-22T02:53:40.396Z,19.25
2017-07-22T02:56:08.748Z,19.17
2017-07-22T02:58:37.083Z,19.30
2017-07-22T03:01:05.427Z,19.29
2017-07-22T03:03:33.784Z,19.26
2017-07-22T03:06:02.123Z,19.21
2017-07-22T03:08:30.480Z,19.25
2017-07-22T03:10:58.821Z,19.33
2017-07-22T03:13:27.159Z,19.15
2017-07-22T03:15:55.507Z,19.16
2017-07-22T03:18:23.844Z,19.19
2017-07-22T03:20:52.477Z,19.21
2017-07-22T03:23:20.825Z,19.16
2017-07-22T03:25:49.157Z,19.21
2017-07-22T03:28:17.576Z,19.18
2017-07-22T03:30:45.922Z,19.18
2017-07-22T03:33:14.274Z,19.20
2017-07-22T03:35:42.618Z,19.18
2017-07-22T03:38:10.972Z,19.11
2017-07-22T03:40:39.326Z,19.12
2017-07-22T03:43:07.673Z,19.16
2017-07-22T03:45:36.023Z,19.15
2017-07-22T03:48:04.379Z,19.20
2017-07-22T03:50:32.721Z,19.23
2017-07-22T03:53:01.074Z,19.20
2017-07-22T03:55:29.415Z,19.22
2017-07-22T03:57:57.826Z,19.22
2017-07-22T04:00:26.143Z,19.23
2017-07-22T04:02:54.485Z,19.26
2017-07-22T04:05:22.823Z,19.12
2017-07-22T04:07:51.151Z,19.19
2017-07-22T04:10:19.772Z,19.21
2017-07-22T04:12:48.474Z,19.22
2017-07-22T04:15:16.821Z,19.22
2017-07-22T04:17:45.167Z,19.22
2017-07-22T04:20:13.501Z,19.18
2017-07-22T04:22:42.092Z,19.20
2017-07-22T04:25:10.426Z,19.18
2017-07-22T04:27:38.747Z,19.17
2017-07-22T04:30:07.106Z,19.15
2017-07-22T04:32:35.431Z,19.17
2017-07-22T04:35:04.046Z,19.07
2017-07-22T04:37:32.369Z,18.98
2017-07-22T04:40:00.714Z,18.97
2017-07-22T04:42:29.082Z,19.08
2017-07-22T04:44:57.413Z,19.21
2017-07-22T04:47:26.021Z,19.30
2017-07-22T04:49:54.349Z,19.40
2017-07-22T04:52:22.682Z,19.34
2017-07-22T04:54:51.042Z,19.32
2017-07-22T04:57:19.392Z,19.23
2017-07-22T04:59:47.734Z,19.22
2017-07-22T05:02:16.843Z,19.21
2017-07-22T05:04:45.215Z,19.38
2017-07-22T05:07:13.571Z,19.40
2017-07-22T05:09:41.911Z,19.40
2017-07-22T05:12:10.270Z,19.47
2017-07-22T05:14:38.610Z,19.55
2017-07-22T05:17:07.084Z,19.40
2017-07-22T05:19:35.472Z,19.24
2017-07-22T05:22:03.829Z,19.15
2017-07-22T05:24:32.199Z,19.12
2017-07-22T05:27:00.533Z,19.18
2017-07-22T05:29:29.666Z,19.28
2017-07-22T05:31:58.026Z,19.25
2017-07-22T05:34:27.079Z,19.32
2017-07-22T05:36:55.436Z,19.36
2017-07-22T05:39:23.782Z,19.29
2017-07-22T05:41:52.119Z,19.30
2017-07-22T05:44:20.479Z,19.38
2017-07-22T05:46:48.878Z,19.35
2017-07-22T05:49:17.253Z,19.43
2017-07-22T05:51:45.578Z,19.51
2017-07-22T05:54:13.939Z,19.48
2017-07-22T05:56:43.046Z,19.43
2017-07-22T05:59:11.385Z,19.57
2017-07-22T06:01:39.748Z,19.53
2017-07-22T06:04:08.103Z,19.59
2017-07-22T06:06:36.456Z,19.54
2017-07-22T06:09:05.576Z,19.56
2017-07-22T06:11:33.903Z,19.51
2017-07-22T06:14:02.255Z,19.45
2017-07-22T06:16:31.030Z,19.47
2017-07-22T06:18:59.372Z,19.59
2017-07-22T06:21:27.700Z,19.49
2017-07-22T06:23:56.050Z,19.61
2017-07-22T06:26:25.143Z,19.67
2017-07-22T06:28:53.789Z,19.62
2017-07-22T06:31:22.125Z,19.64
2017-07-22T06:33:50.473Z,19.59
2017-07-22T06:36:18.840Z,19.67
2017-07-22T06:38:47.167Z,19.70
2017-07-22T06:41:15.522Z,19.75
2017-07-22T06:43:43.861Z,19.69
2017-07-22T06:46:12.222Z,19.74
2017-07-22T06:48:52.658Z,19.79
2017-07-22T06:51:21.497Z,19.77
2017-07-22T06:53:49.860Z,19.81
2017-07-22T06:56:18.207Z,19.91
2017-07-22T06:58:46.554Z,19.92
2017-07-22T07:01:14.929Z,19.99
2017-07-22T07:03:43.285Z,20.14
2017-07-22T07:06:11.622Z,20.19
2017-07-22T07:08:39.997Z,20.19
2017-07-22T07:11:08.362Z,20.20
2017-07-22T07:13:36.723Z,20.12
2017-07-22T07:16:05.061Z,20.22
2017-07-22T07:18:33.378Z,20.12
2017-07-22T07:21:02.103Z,20.03
2017-07-22T07:23:30.459Z,20.07
2017-07-22T07:25:58.815Z,20.09
2017-07-22T07:28:27.174Z,20.31
2017-07-22T07:30:55.533Z,20.24
2017-07-22T07:33:23.894Z,20.36
2017-07-22T07:35:52.990Z,20.41
2017-07-22T07:38:21.341Z,20.43
2017-07-22T07:40:49.706Z,20.47
2017-07-22T07:43:18.032Z,20.37
2017-07-22T07:45:47.428Z,20.43
2017-07-22T07:48:15.773Z,20.59
2017-07-22T07:50:44.099Z,20.72
2017-07-22T07:53:12.465Z,20.70
2017-07-22T07:55:41.583Z,20.77
2017-07-22T07:58:10.203Z,20.70
2017-07-22T08:00:38.535Z,20.84
2017-07-22T08:03:07.647Z,20.85
2017-07-22T08:05:36.000Z,20.90
2017-07-22T08:08:04.363Z,20.96
2017-07-22T08:10:33.083Z,20.96
2017-07-22T08:13:01.423Z,21.06
2017-07-22T08:15:29.806Z,21.04
2017-07-22T08:17:58.176Z,21.09
2017-07-22T08:20:26.542Z,21.27
2017-07-22T08:22:54.930Z,21.45
2017-07-22T08:25:23.938Z,21.65
2017-07-22T08:27:53.027Z,21.71
2017-07-22T08:30:21.399Z,21.82
2017-07-22T08:32:49.741Z,21.83
2017-07-22T08:35:18.438Z,21.83
2017-07-22T08:37:46.769Z,21.92
2017-07-22T08:40:15.100Z,22.03
2017-07-22T08:42:43.479Z,21.98
2017-07-22T08:45:11.808Z,22.15
2017-07-22T08:47:40.557Z,22.21
2017-07-22T08:50:08.897Z,22.20
2017-07-22T08:52:38.473Z,22.27
2017-07-22T08:57:46.354Z,22.44
2017-07-22T09:00:15.121Z,22.62
2017-07-22T09:02:43.463Z,22.68
2017-07-22T09:05:11.834Z,22.78
2017-07-22T09:07:40.222Z,22.76
2017-07-22T09:10:08.556Z,22.71
2017-07-22T09:12:36.894Z,22.63
2017-07-22T09:15:05.261Z,22.74
2017-07-22T09:17:33.587Z,22.75
2017-07-22T09:20:02.486Z,22.88
2017-07-22T09:22:31.994Z,22.93
2017-07-22T09:25:00.345Z,23.08
2017-07-22T09:27:29.490Z,23.19
2017-07-22T09:29:57.846Z,23.28
2017-07-22T09:32:26.223Z,23.38
2017-07-22T09:34:54.546Z,23.41
2017-07-22T09:37:22.910Z,23.61
2017-07-22T09:39:51.295Z,23.71
2017-07-22T09:42:19.645Z,23.67
2017-07-22T09:44:48.038Z,23.69
2017-07-22T09:47:16.364Z,23.67
2017-07-22T09:49:44.717Z,23.73
2017-07-22T09:52:13.078Z,23.70
2017-07-22T09:54:42.003Z,23.72
2017-07-22T09:57:10.380Z,23.78
2017-07-22T09:59:38.703Z,23.86
2017-07-22T10:02:07.052Z,23.84
2017-07-22T10:04:35.401Z,23.87
2017-07-22T10:07:03.762Z,23.96
2017-07-22T10:09:32.099Z,24.04
2017-07-22T10:12:00.439Z,24.08
2017-07-22T10:14:28.796Z,24.14
2017-07-22T10:16:57.699Z,24.14
2017-07-22T10:19:26.030Z,24.19
2017-07-22T10:21:54.364Z,24.31
2017-07-22T10:24:22.710Z,24.41
2017-07-22T10:26:51.841Z,24.50
2017-07-22T10:29:20.186Z,24.57
2017-07-22T10:31:48.523Z,24.62
2017-07-22T10:34:16.877Z,24.56
2017-07-22T10:36:45.204Z,24.62
2017-07-22T10:39:13.563Z,24.69
2017-07-22T10:41:41.919Z,24.73
2017-07-22T10:44:10.231Z,24.76
2017-07-22T10:46:38.598Z,24.60
2017-07-22T10:49:06.927Z,24.55
2017-07-22T10:51:35.614Z,24.59
2017-07-22T10:54:03.945Z,24.47
2017-07-22T10:56:32.300Z,24.45
2017-07-22T10:59:00.653Z,24.16
2017-07-22T11:01:28.989Z,24.01
2017-07-22T11:03:57.344Z,23.75
2017-07-22T11:06:25.671Z,23.62
2017-07-22T11:08:54.031Z,23.56
2017-07-22T11:11:22.379Z,23.36
2017-07-22T11:13:51.963Z,23.01
2017-07-22T11:16:20.304Z,22.94
2017-07-22T11:18:48.646Z,23.03
2017-07-22T11:21:17.012Z,22.80
2017-07-22T11:23:45.361Z,22.61
2017-07-22T11:26:14.477Z,22.23
2017-07-22T11:28:42.817Z,22.36
2017-07-22T11:31:11.179Z,22.07
2017-07-22T11:33:39.546Z,22.00
2017-07-22T11:36:07.891Z,22.11
2017-07-22T11:38:36.239Z,22.45
2017-07-22T11:41:04.572Z,22.61
2017-07-22T11:43:32.920Z,22.75
2017-07-22T11:46:02.144Z,22.74
2017-07-22T11:48:30.490Z,22.76
2017-07-22T11:50:58.859Z,22.79
2017-07-22T11:53:27.212Z,22.93
2017-07-22T11:55:55.548Z,23.04
2017-07-22T11:58:23.888Z,23.14
2017-07-22T12:00:53.215Z,23.28
2017-07-22T12:03:22.347Z,23.40
2017-07-22T12:05:50.728Z,23.43
2017-07-22T12:08:19.700Z,23.48
2017-07-22T12:10:48.052Z,23.65
2017-07-22T12:13:16.392Z,23.68
2017-07-22T12:15:45.135Z,23.75
2017-07-22T12:18:13.485Z,23.78
2017-07-22T12:20:41.865Z,23.86
2017-07-22T12:23:10.217Z,23.84
2017-07-22T12:25:38.554Z,23.97
2017-07-22T12:28:07.707Z,24.18
2017-07-22T12:30:36.080Z,24.24
2017-07-22T12:33:04.446Z,24.39
2017-07-22T12:35:32.786Z,24.35
2017-07-22T12:38:01.134Z,24.44
2017-07-22T12:40:29.497Z,24.52
2017-07-22T12:42:57.857Z,24.61
2017-07-22T12:45:26.228Z,24.67
2017-07-22T12:47:54.560Z,24.79
2017-07-22T12:50:22.910Z,24.79
2017-07-22T12:52:51.244Z,24.95
2017-07-22T12:55:19.594Z,24.95
2017-07-22T12:57:48.827Z,24.94
2017-07-22T13:00:17.171Z,24.88
2017-07-22T13:02:45.501Z,24.94
2017-07-22T13:05:13.871Z,25.02
2017-07-22T13:07:42.664Z,25.05
2017-07-22T13:10:11.045Z,25.34
2017-07-22T13:12:39.388Z,25.46
2017-07-22T13:15:07.736Z,25.44
2017-07-22T13:17:36.109Z,25.55
2017-07-22T13:20:04.428Z,25.70
2017-07-22T13:22:32.772Z,25.79
2017-07-22T13:25:01.158Z,25.90
2017-07-22T13:27:29.489Z,26.01
2017-07-22T13:29:58.579Z,26.12
2017-07-22T13:32:27.667Z,26.23
2017-07-22T13:34:56.032Z,26.34
2017-07-22T13:37:24.423Z,26.52
2017-07-22T13:39:52.763Z,26.47
2017-07-22T13:42:21.099Z,26.50
2017-07-22T13:44:50.197Z,26.49
2017-07-22T13:47:19.014Z,26.40
2017-07-22T13:49:47.360Z,26.54
2017-07-22T13:52:15.718Z,26.72
2017-07-22T13:54:44.073Z,26.93
2017-07-22T13:57:13.262Z,26.98
2017-07-22T13:59:41.607Z,27.06
2017-07-22T14:02:10.700Z,27.11
2017-07-22T14:04:39.034Z,27.20
2017-07-22T14:07:07.409Z,27.39
2017-07-22T14:09:35.855Z,27.52
2017-07-22T14:12:04.227Z,27.79
2017-07-22T14:14:32.607Z,27.86
2017-07-22T14:17:00.962Z,27.68
2017-07-22T14:19:29.296Z,27.54
2017-07-22T14:21:57.616Z,27.40
2017-07-22T14:24:25.982Z,27.39
2017-07-22T14:26:54.332Z,27.18
2017-07-22T14:29:22.680Z,27.26
2017-07-22T14:31:51.117Z,27.20
2017-07-22T14:34:19.464Z,27.26
2017-07-22T14:36:48.087Z,27.60
2017-07-22T14:39:16.443Z,27.78
2017-07-22T14:41:44.803Z,27.89
2017-07-22T14:44:13.162Z,27.75
2017-07-22T14:46:41.509Z,27.68
2017-07-22T14:49:10.298Z,27.71
2017-07-22T14:51:38.747Z,27.92
2017-07-22T14:54:07.187Z,28.33
2017-07-22T14:56:35.685Z,28.49
2017-07-22T14:59:04.129Z,28.57
2017-07-22T15:01:32.668Z,28.93
2017-07-22T15:04:01.199Z,28.54
2017-07-22T15:06:29.550Z,28.39
2017-07-22T15:08:57.901Z,28.55
2017-07-22T15:11:26.255Z,28.68
2017-07-22T15:13:54.879Z,29.09
2017-07-22T15:16:23.227Z,28.88
2017-07-22T15:18:51.667Z,29.15
2017-07-22T15:21:20.026Z,29.38
2017-07-22T15:23:48.344Z,29.48
2017-07-22T15:26:16.956Z,29.63
2017-07-22T15:28:45.290Z,29.98
2017-07-22T15:31:13.615Z,29.64
2017-07-22T15:33:41.955Z,30.09
2017-07-22T15:36:10.306Z,30.44
2017-07-22T15:38:38.962Z,30.70
2017-07-22T15:41:07.305Z,30.80
2017-07-22T15:43:35.652Z,30.97
2017-07-22T15:46:04.026Z,30.76
2017-07-22T15:48:32.357Z,30.90
2017-07-22T15:51:00.963Z,30.63
2017-07-22T15:53:29.308Z,30.70
2017-07-22T15:55:57.636Z,30.70
2017-07-22T15:58:26.007Z,30.71
2017-07-22T16:00:54.338Z,30.62
2017-07-22T16:03:22.694Z,30.51
2017-07-22T16:05:51.037Z,30.25
2017-07-22T16:08:19.456Z,29.87
2017-07-22T16:10:47.826Z,29.58
2017-07-22T16:13:16.170Z,29.49
2017-07-22T16:15:44.533Z,29.43
2017-07-22T16:18:12.884Z,29.38
2017-07-22T16:20:41.257Z,29.19
2017-07-22T16:23:09.623Z,29.06
2017-07-22T16:25:37.975Z,28.82
2017-07-22T16:28:06.357Z,28.52
2017-07-22T16:30:34.702Z,28.32
2017-07-22T16:33:03.069Z,28.21
2017-07-22T16:35:31.443Z,28.12
2017-07-22T16:37:59.777Z,28.29
2017-07-22T16:40:28.874Z,28.54
2017-07-22T16:42:57.200Z,28.86
2017-07-22T16:45:25.840Z,29.07
2017-07-22T16:47:54.182Z,29.23
2017-07-22T16:50:22.530Z,29.23
2017-07-22T16:52:50.891Z,29.36
2017-07-22T16:55:19.241Z,29.46
2017-07-22T16:57:47.598Z,29.67
2017-07-22T17:00:15.943Z,29.41
2017-07-22T17:02:44.290Z,29.34
2017-07-22T17:05:12.644Z,28.99
2017-07-22T17:07:41.634Z,28.76
2017-07-22T17:10:09.976Z,28.48
2017-07-22T17:12:38.349Z,28.41
2017-07-22T17:15:06.688Z,28.24
2017-07-22T17:17:35.042Z,28.85
2017-07-22T17:20:03.398Z,29.30
2017-07-22T17:22:31.729Z,29.79
2017-07-22T17:25:00.070Z,30.15
2017-07-22T17:27:28.427Z,29.90
2017-07-22T17:29:56.764Z,29.47
2017-07-22T17:32:25.141Z,29.22
2017-07-22T17:34:53.480Z,29.06
2017-07-22T17:37:21.899Z,28.60
2017-07-22T17:39:50.607Z,28.32
2017-07-22T17:42:18.928Z,27.83
2017-07-22T17:44:47.282Z,27.74
2017-07-22T17:47:15.655Z,27.69
2017-07-22T17:49:44.007Z,27.50
2017-07-22T17:52:13.430Z,27.15
2017-07-22T17:54:41.744Z,27.05
2017-07-22T17:57:10.085Z,26.93
2017-07-22T17:59:39.582Z,26.70
2017-07-22T18:02:07.928Z,26.53
2017-07-22T18:04:36.278Z,26.33
2017-07-22T18:07:04.623Z,26.11
2017-07-22T18:09:32.965Z,25.84
2017-07-22T18:12:01.337Z,25.75
2017-07-22T18:14:29.751Z,25.56
2017-07-22T18:16:58.188Z,25.36
2017-07-22T18:19:26.579Z,25.22
2017-07-22T18:21:54.982Z,25.02
2017-07-22T18:24:23.423Z,24.93
2017-07-22T18:26:52.230Z,24.78
2017-07-22T18:29:20.580Z,24.56
2017-07-22T18:31:48.953Z,24.57
2017-07-22T18:34:17.281Z,24.45
2017-07-22T18:36:45.646Z,24.40
2017-07-22T18:39:14.008Z,24.23
2017-07-22T18:41:42.355Z,24.16
2017-07-22T18:44:10.712Z,24.11
2017-07-22T18:46:39.072Z,24.12
2017-07-22T18:49:07.453Z,24.01
2017-07-22T18:51:35.811Z,23.79
2017-07-22T18:54:04.163Z,23.63
2017-07-22T18:56:32.560Z,23.44
2017-07-22T18:59:00.914Z,23.41
2017-07-22T19:01:30.092Z,23.35
2017-07-22T19:03:58.446Z,23.22
2017-07-22T19:06:26.808Z,23.19
2017-07-22T19:08:55.293Z,23.08
2017-07-22T19:11:23.643Z,23.14
2017-07-22T19:13:52.774Z,22.86
2017-07-22T19:16:21.405Z,22.58
2017-07-22T19:18:49.723Z,22.43
2017-07-22T19:21:18.486Z,22.20
2017-07-22T19:23:46.827Z,22.08
2017-07-22T19:26:15.190Z,22.03
2017-07-22T19:28:43.586Z,22.11
2017-07-22T19:31:11.951Z,22.11
2017-07-22T19:33:40.332Z,22.25
2017-07-22T19:36:08.694Z,22.41
2017-07-22T19:38:37.125Z,22.39
2017-07-22T19:41:05.503Z,22.28
2017-07-22T19:43:33.854Z,22.17
2017-07-22T19:46:02.234Z,22.19
2017-07-22T19:48:30.584Z,22.22
2017-07-22T19:50:58.936Z,22.05
2017-07-22T19:53:27.271Z,21.98
2017-07-22T19:55:55.599Z,22.00
2017-07-22T19:58:24.225Z,21.86
2017-07-22T20:00:52.687Z,21.90
2017-07-22T20:03:21.105Z,21.81
2017-07-22T20:05:49.447Z,21.69
2017-07-22T20:08:17.798Z,21.75
2017-07-22T20:10:46.410Z,21.79
2017-07-22T20:13:15.243Z,21.56
2017-07-22T20:15:43.610Z,21.56
2017-07-22T20:18:11.948Z,21.55
2017-07-22T20:20:40.301Z,21.63
2017-07-22T20:23:08.899Z,21.41
2017-07-22T20:25:37.227Z,21.45
2017-07-22T20:28:05.564Z,21.55
2017-07-22T20:30:33.948Z,21.44
2017-07-22T20:33:02.294Z,21.48
2017-07-22T20:35:30.911Z,21.47
2017-07-22T20:37:59.240Z,21.40
2017-07-22T20:40:27.601Z,21.36
2017-07-22T20:42:55.956Z,21.30
2017-07-22T20:45:24.283Z,21.40
2017-07-22T20:47:52.646Z,21.38
2017-07-22T20:50:21.014Z,21.28
2017-07-22T20:52:49.379Z,21.24
2017-07-22T20:55:17.730Z,21.32
2017-07-22T20:57:46.054Z,21.29
2017-07-22T21:00:14.406Z,21.20
2017-07-22T21:02:42.791Z,21.14
2017-07-22T21:05:11.209Z,21.12
2017-07-22T21:07:39.798Z,21.22
2017-07-22T21:10:08.137Z,21.24
2017-07-22T21:12:37.170Z,21.25
2017-07-22T21:15:05.519Z,21.26
2017-07-22T21:17:33.881Z,21.28
2017-07-22T21:20:02.541Z,21.16
2017-07-22T21:22:30.909Z,21.19
2017-07-22T21:24:59.217Z,21.04
2017-07-22T21:27:27.565Z,21.05
2017-07-22T21:29:55.904Z,20.85
2017-07-22T21:32:24.527Z,20.78
2017-07-22T21:34:52.866Z,20.86
2017-07-22T21:37:21.199Z,20.77
2017-07-22T21:39:49.569Z,20.64
2017-07-22T21:42:17.902Z,20.57
2017-07-22T21:44:46.509Z,20.62
2017-07-22T21:47:14.851Z,20.64
2017-07-22T21:49:43.195Z,20.46
2017-07-22T21:52:11.542Z,20.33
2017-07-22T21:54:39.872Z,20.13
2017-07-22T21:57:08.465Z,20.10
2017-07-22T21:59:36.816Z,20.03
2017-07-22T22:02:05.159Z,20.07
2017-07-22T22:04:33.518Z,19.81
2017-07-22T22:07:01.840Z,19.83
2017-07-22T22:09:30.179Z,19.77
2017-07-22T22:11:58.497Z,19.71
2017-07-22T22:14:27.117Z,19.71
2017-07-22T22:16:55.454Z,19.81
2017-07-22T22:19:23.795Z,19.63
2017-07-22T22:21:52.141Z,19.76
2017-07-22T22:24:20.494Z,19.75
2017-07-22T22:26:48.835Z,19.59
2017-07-22T22:29:17.230Z,19.47
2017-07-22T22:31:45.568Z,19.59
2017-07-22T22:34:13.901Z,19.57
2017-07-22T22:36:42.498Z,19.55
2017-07-22T22:39:10.837Z,19.57
2017-07-22T22:41:39.177Z,19.41
2017-07-22T22:44:07.528Z,19.36
2017-07-22T22:46:35.859Z,19.35
2017-07-22T22:49:04.194Z,19.09
2017-07-22T22:51:32.546Z,19.12
2017-07-22T22:54:00.905Z,18.99
2017-07-22T22:56:29.305Z,18.79
2017-07-22T22:58:57.647Z,18.90
2017-07-22T23:01:26.018Z,18.95
2017-07-22T23:03:54.382Z,18.88
2017-07-22T23:06:23.506Z,18.88
2017-07-22T23:08:51.884Z,18.57
2017-07-22T23:11:20.224Z,18.72
2017-07-22T23:13:48.577Z,18.75
2017-07-22T23:16:16.926Z,18.77
2017-07-22T23:18:45.269Z,18.73
2017-07-22T23:21:13.867Z,18.65
2017-07-22T23:23:42.209Z,18.72
2017-07-22T23:26:10.531Z,18.48
2017-07-22T23:28:38.873Z,18.49
2017-07-22T23:31:07.206Z,18.52
2017-07-22T23:33:35.585Z,18.39
2017-07-22T23:36:03.970Z,18.53
2017-07-22T23:38:32.309Z,18.38
2017-07-22T23:41:00.661Z,18.47
2017-07-22T23:43:29.035Z,18.44
2017-07-22T23:45:57.368Z,18.34
2017-07-22T23:48:25.999Z,18.46
2017-07-22T23:50:54.328Z,18.34
2017-07-22T23:53:22.660Z,18.48
2017-07-22T23:55:51.004Z,18.64
2017-07-22T23:58:19.340Z,18.55
